createdAt,value
2022-09-29T00:04:30.172Z,13.22
2022-09-29T00:09:32.164Z,13.16
2022-09-29T00:14:33.938Z,13.13
2022-09-29T00:19:35.512Z,13.08
2022-09-29T00:24:37.314Z,13.04
2022-09-29T00:29:38.874Z,13.05
2022-09-29T00:34:40.509Z,12.97
2022-09-29T00:39:42.084Z,12.89
2022-09-29T00:44:55.541Z,12.89
2022-09-29T00:50:04.941Z,12.90
2022-09-29T00:55:18.873Z,12.84
2022-09-29T01:00:22.229Z,12.84
2022-09-29T01:05:29.875Z,12.81
2022-09-29T01:10:31.756Z,12.78
2022-09-29T01:15:34.461Z,12.81
2022-09-29T01:20:46.984Z,12.80
2022-09-29T01:25:48.813Z,12.81
2022-09-29T01:31:14.314Z,12.77
2022-09-29T01:36:44.563Z,12.75
2022-09-29T01:41:48.874Z,12.68
2022-09-29T01:46:59.753Z,12.67
2022-09-29T01:52:18.112Z,12.68
2022-09-29T01:57:38.011Z,12.69
2022-09-29T02:02:43.135Z,12.69
2022-09-29T02:07:46.747Z,12.63
2022-09-29T02:12:50.849Z,12.66
2022-09-29T02:17:56.993Z,12.65
2022-09-29T02:22:58.772Z,12.63
2022-09-29T02:28:00.643Z,12.62
2022-09-29T02:33:02.466Z,12.59
2022-09-29T02:38:09.502Z,12.59
2022-09-29T02:43:14.127Z,12.58
2022-09-29T02:48:26.081Z,12.53
2022-09-29T02:53:52.374Z,12.52
2022-09-29T02:59:07.458Z,12.52
2022-09-29T03:04:09.647Z,12.51
2022-09-29T03:09:11.360Z,12.51
2022-09-29T03:14:13.093Z,12.48
2022-09-29T03:19:14.683Z,12.47
2022-09-29T03:24:16.477Z,12.44
2022-09-29T03:29:18.264Z,12.43
2022-09-29T03:34:19.849Z,12.45
2022-09-29T03:39:21.752Z,12.42
2022-09-29T03:44:23.536Z,12.38
2022-09-29T03:49:25.122Z,12.35
2022-09-29T03:54:28.101Z,12.37
2022-09-29T03:59:29.777Z,12.35
2022-09-29T04:04:31.389Z,12.33
2022-09-29T04:09:32.957Z,12.27
2022-09-29T04:14:34.532Z,12.23
2022-09-29T04:19:36.285Z,12.25
2022-09-29T04:24:38.645Z,12.26
2022-09-29T04:29:40.260Z,12.25
2022-09-29T04:34:42.002Z,12.24
2022-09-29T04:39:43.570Z,12.24
2022-09-29T04:44:45.515Z,12.23
2022-09-29T04:49:47.268Z,12.22
2022-09-29T04:54:48.797Z,12.21
2022-09-29T04:59:51.883Z,12.15
2022-09-29T05:04:53.518Z,12.07
2022-09-29T05:09:55.322Z,12.03
2022-09-29T05:14:56.969Z,12.02
2022-09-29T05:19:58.505Z,11.96
2022-09-29T05:25:00.129Z,11.92
2022-09-29T05:30:01.989Z,11.94
2022-09-29T05:35:04.671Z,11.94
2022-09-29T05:40:08.457Z,12.00
2022-09-29T05:45:10.924Z,12.06
2022-09-29T05:50:13.092Z,12.07
2022-09-29T05:55:16.062Z,12.09
2022-09-29T06:00:17.758Z,12.17
2022-09-29T06:05:19.582Z,12.23
2022-09-29T06:10:22.077Z,12.28
2022-09-29T06:15:24.156Z,12.32
2022-09-29T06:20:26.091Z,12.42
2022-09-29T06:25:28.181Z,12.54
2022-09-29T06:30:29.951Z,12.65
2022-09-29T06:35:50.078Z,12.73
2022-09-29T06:40:52.058Z,12.73
2022-09-29T06:45:54.018Z,12.65
2022-09-29T06:51:06.728Z,12.67
2022-09-29T06:56:11.158Z,12.64
2022-09-29T07:01:13.840Z,12.67
2022-09-29T07:06:19.663Z,12.66
2022-09-29T07:11:22.096Z,12.65
2022-09-29T07:16:24.599Z,12.71
2022-09-29T07:21:26.475Z,12.79
2022-09-29T07:26:28.329Z,12.84
2022-09-29T07:31:34.469Z,12.93
2022-09-29T07:36:40.892Z,13.04
2022-09-29T07:41:42.667Z,13.09
2022-09-29T07:46:44.220Z,13.08
2022-09-29T07:51:46.035Z,13.04
2022-09-29T07:56:47.614Z,13.12
2022-09-29T08:01:49.354Z,13.21
2022-09-29T08:06:51.085Z,13.28
2022-09-29T08:12:04.640Z,13.32
2022-09-29T08:17:08.939Z,13.42
2022-09-29T08:22:10.530Z,13.36
2022-09-29T08:27:18.775Z,13.46
2022-09-29T08:32:20.983Z,13.53
2022-09-29T08:37:22.801Z,13.49
2022-09-29T08:42:46.884Z,13.58
2022-09-29T08:47:52.332Z,13.68
2022-09-29T08:52:58.174Z,13.75
2022-09-29T08:58:01.768Z,13.87
2022-09-29T09:03:30.500Z,14.00
2022-09-29T09:09:13.293Z,14.16
2022-09-29T09:15:06.052Z,14.40
2022-09-29T09:20:29.119Z,14.50
2022-09-29T09:25:38.433Z,14.53
2022-09-29T09:30:50.780Z,14.55
2022-09-29T09:35:59.384Z,14.27
2022-09-29T09:41:02.150Z,14.52
2022-09-29T09:46:12.534Z,14.50
2022-09-29T09:51:46.529Z,14.51
2022-09-29T09:57:20.621Z,14.75
2022-09-29T10:02:24.124Z,15.02
2022-09-29T10:07:30.060Z,15.16
2022-09-29T10:12:31.831Z,15.13
2022-09-29T10:17:42.527Z,14.84
2022-09-29T10:22:48.426Z,14.75
2022-09-29T10:27:57.621Z,14.75
2022-09-29T10:33:03.215Z,15.03
2022-09-29T10:38:24.145Z,15.18
2022-09-29T10:43:34.788Z,15.42
2022-09-29T10:48:36.415Z,15.53
2022-09-29T10:53:40.578Z,15.30
2022-09-29T10:58:57.604Z,15.11
2022-09-29T11:04:15.761Z,15.21
2022-09-29T11:09:20.625Z,15.37
2022-09-29T11:14:36.272Z,15.44
2022-09-29T11:19:38.372Z,15.47
2022-09-29T11:25:10.820Z,15.30
2022-09-29T11:30:17.481Z,15.15
2022-09-29T11:35:40.855Z,15.20
2022-09-29T11:41:00.445Z,15.30
2022-09-29T11:46:20.957Z,15.49
2022-09-29T11:51:46.988Z,15.31
2022-09-29T11:57:00.505Z,15.66
2022-09-29T12:02:36.340Z,15.64
2022-09-29T12:07:46.411Z,15.82
2022-09-29T12:12:59.364Z,15.97
2022-09-29T12:18:13.345Z,16.15
2022-09-29T12:23:17.567Z,16.22
2022-09-29T12:28:24.664Z,16.26
2022-09-29T12:33:37.824Z,16.28
2022-09-29T12:38:45.158Z,16.25
2022-09-29T12:43:59.604Z,16.25
2022-09-29T12:49:25.627Z,16.56
2022-09-29T12:54:45.037Z,16.72
2022-09-29T12:59:59.937Z,16.59
2022-09-29T13:05:07.693Z,16.63
2022-09-29T13:10:43.409Z,16.42
2022-09-29T13:16:31.117Z,16.48
2022-09-29T13:22:01.516Z,16.67
2022-09-29T13:27:16.462Z,16.63
2022-09-29T13:32:18.884Z,16.64
2022-09-29T13:37:22.647Z,16.87
2022-09-29T13:42:43.979Z,17.10
2022-09-29T13:47:51.711Z,17.16
2022-09-29T13:52:53.261Z,17.33
2022-09-29T13:57:54.880Z,17.34
2022-09-29T14:03:06.048Z,17.37
2022-09-29T14:08:14.292Z,17.41
2022-09-29T14:13:34.648Z,17.48
2022-09-29T14:18:56.012Z,17.59
2022-09-29T14:23:57.586Z,17.72
2022-09-29T14:29:03.790Z,17.61
2022-09-29T14:34:05.472Z,17.57
2022-09-29T14:39:25.529Z,17.37
2022-09-29T14:44:55.231Z,16.91
2022-09-29T14:50:39.860Z,17.05
2022-09-29T14:56:06.903Z,17.26
2022-09-29T15:01:31.247Z,17.15
2022-09-29T15:06:33.261Z,17.05
2022-09-29T15:11:45.319Z,17.09
2022-09-29T15:17:20.903Z,17.06
2022-09-29T15:23:00.007Z,17.00
2022-09-29T15:28:05.389Z,16.95
2022-09-29T15:33:15.911Z,16.87
2022-09-29T15:38:23.781Z,16.72
2022-09-29T15:43:28.461Z,16.58
2022-09-29T15:48:31.374Z,16.51
2022-09-29T15:53:33.510Z,16.42
2022-09-29T15:58:42.640Z,16.38
2022-09-29T16:03:58.813Z,16.28
2022-09-29T16:09:08.113Z,16.20
2022-09-29T16:14:18.438Z,16.15
2022-09-29T16:19:27.344Z,16.08
2022-09-29T16:24:35.889Z,15.97
2022-09-29T16:29:37.888Z,15.95
2022-09-29T16:34:39.681Z,15.75
2022-09-29T16:39:46.840Z,15.61
2022-09-29T16:44:53.365Z,15.49
2022-09-29T16:50:05.544Z,15.33
2022-09-29T16:55:30.847Z,15.39
2022-09-29T17:00:32.781Z,15.29
2022-09-29T17:05:37.441Z,15.14
2022-09-29T17:10:39.053Z,15.10
2022-09-29T17:15:40.770Z,15.04
2022-09-29T17:20:42.653Z,14.99
2022-09-29T17:25:46.273Z,14.92
2022-09-29T17:30:48.646Z,14.85
2022-09-29T17:35:55.327Z,14.70
2022-09-29T17:41:02.138Z,14.61
2022-09-29T17:46:06.778Z,14.53
2022-09-29T17:51:18.478Z,14.43
2022-09-29T17:56:28.643Z,14.34
2022-09-29T18:01:31.572Z,14.23
2022-09-29T18:06:37.263Z,14.18
2022-09-29T18:11:38.932Z,14.10
2022-09-29T18:16:40.577Z,14.00
2022-09-29T18:21:42.423Z,13.92
2022-09-29T18:26:45.689Z,13.81
2022-09-29T18:31:47.639Z,13.76
2022-09-29T18:36:49.286Z,13.72
2022-09-29T18:41:51.204Z,13.66
2022-09-29T18:46:53.019Z,13.64
2022-09-29T18:51:54.871Z,13.69
2022-09-29T18:56:56.425Z,13.65
2022-09-29T19:01:58.092Z,13.60
2022-09-29T19:06:59.976Z,13.57
2022-09-29T19:12:01.737Z,13.52
2022-09-29T19:17:05.447Z,13.49
2022-09-29T19:22:12.354Z,13.40
2022-09-29T19:27:14.191Z,13.30
2022-09-29T19:32:15.990Z,13.30
2022-09-29T19:37:17.593Z,13.25
2022-09-29T19:42:19.154Z,13.19
2022-09-29T19:47:20.767Z,13.16
2022-09-29T19:52:23.008Z,13.09
2022-09-29T19:57:26.469Z,13.10
2022-09-29T20:02:28.398Z,13.02
2022-09-29T20:07:30.214Z,12.99
2022-09-29T20:12:32.532Z,12.92
2022-09-29T20:17:35.217Z,12.92
2022-09-29T20:22:36.892Z,12.92
2022-09-29T20:27:40.497Z,12.94
2022-09-29T20:32:42.099Z,12.92
2022-09-29T20:37:43.908Z,12.94
2022-09-29T20:42:48.656Z,12.96
2022-09-29T20:47:50.216Z,12.95
2022-09-29T20:52:52.922Z,12.90
2022-09-29T20:57:57.895Z,12.89
2022-09-29T21:02:59.548Z,12.63
2022-09-29T21:08:01.325Z,12.76
2022-09-29T21:13:03.219Z,12.82
2022-09-29T21:18:05.016Z,12.90
2022-09-29T21:23:06.591Z,12.94
2022-09-29T21:28:09.192Z,12.96
2022-09-29T21:33:10.757Z,12.93
2022-09-29T21:38:13.157Z,12.90
2022-09-29T21:43:14.713Z,12.79
2022-09-29T21:48:16.419Z,12.44
2022-09-29T21:53:18.037Z,12.40
2022-09-29T21:58:19.615Z,12.45
2022-09-29T22:03:21.213Z,12.46
2022-09-29T22:08:26.168Z,12.51
2022-09-29T22:13:27.787Z,12.45
2022-09-29T22:18:41.128Z,12.45
2022-09-29T22:23:44.263Z,12.56
2022-09-29T22:28:45.936Z,12.66
2022-09-29T22:33:52.613Z,12.76
2022-09-29T22:38:55.138Z,12.80
2022-09-29T22:43:59.149Z,12.75
2022-09-29T22:49:00.811Z,12.76
2022-09-29T22:54:02.622Z,12.53
2022-09-29T22:59:04.736Z,12.43
2022-09-29T23:04:06.649Z,12.52
2022-09-29T23:09:10.496Z,12.63
2022-09-29T23:14:12.441Z,12.55
2022-09-29T23:19:14.029Z,12.60
2022-09-29T23:24:16.550Z,12.66
2022-09-29T23:29:18.288Z,12.57
2022-09-29T23:34:23.597Z,12.72
2022-09-29T23:39:25.254Z,12.75
2022-09-29T23:44:29.569Z,12.83
2022-09-29T23:49:31.549Z,12.87
2022-09-29T23:54:33.300Z,12.90
2022-09-29T23:59:35.045Z,12.95
